(°C)
13°
13°
13°
14°
14°
15°
16°
(°C)
12°
12°
11°
11°
12°
13°
14°
É
ÉÉN
É
É
ÉÉN
ÉÉN
ÉNy
(km/h)
7-17
9-16
13-19
16-19
16-20
15-19
14-18
(mm)
0.2
0.2
0
0
0
1.6
0
(%)
99
99
80
74
70
71
54

Napfelkelte

/ 39.3°
sun-icon
UV 2
05:29
20:48
Hold (fogyó sarló) (280°)
00:02
14:55

METAR 50.1°É 14.27°K (LKPR)-ért

Idő Feltételek Hőmérséklet/
Harmatpont
Szél Látási viszonyok Időjárás Felhők Légnyomás Módosítás Nyers
LIFR 13°C / 13°C 340º variable 290º to 010º 6kt 4500m Rain Mist 3.00mm precipitation Vertical Visibility of 0ft. 1009 - LKPR 010746Z 34006KT 290V010 4500 RA BR BKN003 OVC048 13/13 Q1009 RMK REG QNH 1002
MVFR 13°C / 13°C 340º 7kt 5000m Rain Mist 3.00mm precipitation Vertical Visibility of 0ft. 1009 - LKPR 010736Z 34007KT 5000 RA BR SCT003 OVC048 13/13 Q1009 RMK REG QNH 1002
IFR 13°C / 13°C 350º 6kt 4500m Rain 3.00mm precipitation Vertical Visibility of 0ft. 1009 - LKPR 010710Z 35006KT 4500 RA FEW020 OVC046 13/13 Q1009 RMK REG QNH 1002
IFR 13°C / 13°C 330º 6kt 4500m Rain 3.00mm precipitation Vertical Visibility of 0ft. 1009 No Significant change LKPR 010700Z 33006KT 4500 RA FEW020 OVC046 13/13 Q1009 NOSIG
IFR 13°C / 13°C 280º 6kt 4000m Rain 3.00mm precipitation Vertical Visibility of 0ft. 1009 - LKPR 010632Z 28006KT 4000 RA FEW020 BKN043 13/13 Q1009 RMK REG QNH 1005
IFR 13°C / 13°C 290º variable 260º to 330º 4kt 4500m Rain 3.00mm precipitation Vertical Visibility of 0ft. 1009 - LKPR 010621Z 29004KT 260V330 4500 RA FEW020 BKN043 13/13 Q1009 RMK REG QNH 1005
MVFR 14°C / 13°C 340º variable 310º to 030º 3kt 7000m Rain 3.00mm precipitation Vertical Visibility of 0ft. 1009 - LKPR 010606Z 34003KT 310V030 7000 RA BKN045 14/13 Q1009 RMK REG QNH 1005
VFR 14°C / 13°C 290º variable 230º to 340º 3kt 9000m Light Rain 1.00mm precipitation Vertical Visibility of 0ft. 1008 No Significant change LKPR 010530Z 29003KT 230V340 9000 -RA FEW023 14/13 Q1008 NOSIG
MVFR 14°C / 13°C 240º 4kt 6000m Rain 3.00mm precipitation Vertical Visibility of 0ft. 1009 - LKPR 010516Z 24004KT 6000 RA FEW023 14/13 Q1009 RMK REG QNH 1006
VFR 14°C / 13°C 270º 4kt 9000m Light Rain 1.00mm precipitation Vertical Visibility of 0ft. 1009 No Significant change LKPR 010500Z 27004KT 9000 -RA FEW036 14/13 Q1009 NOSIG
VFR 14°C / 13°C 280º 4kt >10km Light Rain 1.00mm precipitation Vertical Visibility of 0ft. 1009 No Significant change LKPR 010430Z 28004KT 9999 -RA FEW036 14/13 Q1009 NOSIG
VFR 14°C / 13°C 220º 5kt >10km Light Rain 1.00mm precipitation Vertical Visibility of 0ft. 1009 No Significant change LKPR 010400Z 22005KT 9999 -RA FEW036 14/13 Q1009 NOSIG
VFR 14°C / 12°C variable 1kt >10km Light Rain 1.00mm precipitation Vertical Visibility of 0ft. 1009 No Significant change LKPR 010330Z VRB01KT 9999 -RA FEW036 14/12 Q1009 NOSIG
VFR 14°C / 12°C variable 0kt >10km Light Rain 1.00mm precipitation Vertical Visibility of 0ft. 1009 - LKPR 010310Z 00000KT 9999 -RA NSC 14/12 Q1009 RMK REG QNH 1006
VFR 14°C / 11°C 250º 3kt >10km - Clouds and Visibility OK 1009 Becoming: Visibility 8000. Rain . Broken Clouds 3000ft. LKPR 010300Z 25003KT CAVOK 14/11 Q1009 BECMG 8000 RA BKN030
VFR 14°C / 11°C 270º 2kt >10km - Clouds and Visibility OK 1009 Becoming: Visibility 8000. Rain . Broken Clouds 3000ft. LKPR 010230Z 27002KT CAVOK 14/11 Q1009 BECMG 8000 RA BKN030
VFR 15°C / 10°C 150º 3kt >10km - Clouds and Visibility OK 1009 No Significant change LKPR 010200Z 15003KT CAVOK 15/10 Q1009 NOSIG
VFR 15°C / 9°C variable 2kt >10km - Clouds and Visibility OK 1010 No Significant change LKPR 010130Z VRB02KT CAVOK 15/09 Q1010 NOSIG
VFR 14°C / 9°C 240º 3kt >10km - Clouds and Visibility OK 1010 No Significant change LKPR 010100Z 24003KT CAVOK 14/09 Q1010 NOSIG
VFR 15°C / 9°C 240º 5kt >10km - Clouds and Visibility OK 1010 No Significant change LKPR 010030Z 24005KT CAVOK 15/09 Q1010 NOSIG
VFR 14°C / 9°C 220º 4kt >10km - Clouds and Visibility OK 1010 No Significant change LKPR 010000Z 22004KT CAVOK 14/09 Q1010 NOSIG
VFR 14°C / 9°C 220º 5kt >10km - Clouds and Visibility OK 1010 No Significant change LKPR 312330Z 22005KT CAVOK 14/09 Q1010 NOSIG
VFR 15°C / 10°C 220º 7kt >10km - Clouds and Visibility OK 1011 No Significant change LKPR 312300Z 22007KT CAVOK 15/10 Q1011 NOSIG
VFR 15°C / 10°C 220º 7kt >10km - Clouds and Visibility OK 1010 No Significant change LKPR 312230Z 22007KT CAVOK 15/10 Q1010 NOSIG

LIFR

13°C / 13°C

[Több]
Szél 340º variable 290º to 010º 6kt
Látási viszonyok 4500m
Időjárás Rain Mist 3.00mm precipitation
Felhők Vertical Visibility of 0ft.
Légnyomás 1009
Módosítás -
Nyers LKPR 010746Z 34006KT 290V010 4500 RA BR BKN003 OVC048 13/13 Q1009 RMK REG QNH 1002

MVFR

13°C / 13°C

[Több]
Szél 340º 7kt
Látási viszonyok 5000m
Időjárás Rain Mist 3.00mm precipitation
Felhők Vertical Visibility of 0ft.
Légnyomás 1009
Módosítás -
Nyers LKPR 010736Z 34007KT 5000 RA BR SCT003 OVC048 13/13 Q1009 RMK REG QNH 1002

IFR

13°C / 13°C

[Több]
Szél 350º 6kt
Látási viszonyok 4500m
Időjárás Rain 3.00mm precipitation
Felhők Vertical Visibility of 0ft.
Légnyomás 1009
Módosítás -
Nyers LKPR 010710Z 35006KT 4500 RA FEW020 OVC046 13/13 Q1009 RMK REG QNH 1002

IFR

13°C / 13°C

[Több]
Szél 330º 6kt
Látási viszonyok 4500m
Időjárás Rain 3.00mm precipitation
Felhők Vertical Visibility of 0ft.
Légnyomás 1009
Módosítás No Significant change
Nyers LKPR 010700Z 33006KT 4500 RA FEW020 OVC046 13/13 Q1009 NOSIG

IFR

13°C / 13°C

[Több]
Szél 280º 6kt
Látási viszonyok 4000m
Időjárás Rain 3.00mm precipitation
Felhők Vertical Visibility of 0ft.
Légnyomás 1009
Módosítás -
Nyers LKPR 010632Z 28006KT 4000 RA FEW020 BKN043 13/13 Q1009 RMK REG QNH 1005

IFR

13°C / 13°C

[Több]
Szél 290º variable 260º to 330º 4kt
Látási viszonyok 4500m
Időjárás Rain 3.00mm precipitation
Felhők Vertical Visibility of 0ft.
Légnyomás 1009
Módosítás -
Nyers LKPR 010621Z 29004KT 260V330 4500 RA FEW020 BKN043 13/13 Q1009 RMK REG QNH 1005

MVFR

14°C / 13°C

[Több]
Szél 340º variable 310º to 030º 3kt
Látási viszonyok 7000m
Időjárás Rain 3.00mm precipitation
Felhők Vertical Visibility of 0ft.
Légnyomás 1009
Módosítás -
Nyers LKPR 010606Z 34003KT 310V030 7000 RA BKN045 14/13 Q1009 RMK REG QNH 1005

VFR

14°C / 13°C

[Több]
Szél 290º variable 230º to 340º 3kt
Látási viszonyok 9000m
Időjárás Light Rain 1.00mm precipitation
Felhők Vertical Visibility of 0ft.
Légnyomás 1008
Módosítás No Significant change
Nyers LKPR 010530Z 29003KT 230V340 9000 -RA FEW023 14/13 Q1008 NOSIG

MVFR

14°C / 13°C

[Több]
Szél 240º 4kt
Látási viszonyok 6000m
Időjárás Rain 3.00mm precipitation
Felhők Vertical Visibility of 0ft.
Légnyomás 1009
Módosítás -
Nyers LKPR 010516Z 24004KT 6000 RA FEW023 14/13 Q1009 RMK REG QNH 1006

VFR

14°C / 13°C

[Több]
Szél 270º 4kt
Látási viszonyok 9000m
Időjárás Light Rain 1.00mm precipitation
Felhők Vertical Visibility of 0ft.
Légnyomás 1009
Módosítás No Significant change
Nyers LKPR 010500Z 27004KT 9000 -RA FEW036 14/13 Q1009 NOSIG

VFR

14°C / 13°C

[Több]
Szél 280º 4kt
Látási viszonyok >10km
Időjárás Light Rain 1.00mm precipitation
Felhők Vertical Visibility of 0ft.
Légnyomás 1009
Módosítás No Significant change
Nyers LKPR 010430Z 28004KT 9999 -RA FEW036 14/13 Q1009 NOSIG

VFR

14°C / 13°C

[Több]
Szél 220º 5kt
Látási viszonyok >10km
Időjárás Light Rain 1.00mm precipitation
Felhők Vertical Visibility of 0ft.
Légnyomás 1009
Módosítás No Significant change
Nyers LKPR 010400Z 22005KT 9999 -RA FEW036 14/13 Q1009 NOSIG

VFR

14°C / 12°C

[Több]
Szél variable 1kt
Látási viszonyok >10km
Időjárás Light Rain 1.00mm precipitation
Felhők Vertical Visibility of 0ft.
Légnyomás 1009
Módosítás No Significant change
Nyers LKPR 010330Z VRB01KT 9999 -RA FEW036 14/12 Q1009 NOSIG

VFR

14°C / 12°C

[Több]
Szél variable 0kt
Látási viszonyok >10km
Időjárás Light Rain 1.00mm precipitation
Felhők Vertical Visibility of 0ft.
Légnyomás 1009
Módosítás -
Nyers LKPR 010310Z 00000KT 9999 -RA NSC 14/12 Q1009 RMK REG QNH 1006

VFR

14°C / 11°C

[Több]
Szél 250º 3kt
Látási viszonyok >10km
Időjárás -
Felhők Clouds and Visibility OK
Légnyomás 1009
Módosítás Becoming: Visibility 8000. Rain . Broken Clouds 3000ft.
Nyers LKPR 010300Z 25003KT CAVOK 14/11 Q1009 BECMG 8000 RA BKN030

VFR

14°C / 11°C

[Több]
Szél 270º 2kt
Látási viszonyok >10km
Időjárás -
Felhők Clouds and Visibility OK
Légnyomás 1009
Módosítás Becoming: Visibility 8000. Rain . Broken Clouds 3000ft.
Nyers LKPR 010230Z 27002KT CAVOK 14/11 Q1009 BECMG 8000 RA BKN030

VFR

15°C / 10°C

[Több]
Szél 150º 3kt
Látási viszonyok >10km
Időjárás -
Felhők Clouds and Visibility OK
Légnyomás 1009
Módosítás No Significant change
Nyers LKPR 010200Z 15003KT CAVOK 15/10 Q1009 NOSIG

VFR

15°C / 9°C

[Több]
Szél variable 2kt
Látási viszonyok >10km
Időjárás -
Felhők Clouds and Visibility OK
Légnyomás 1010
Módosítás No Significant change
Nyers LKPR 010130Z VRB02KT CAVOK 15/09 Q1010 NOSIG

VFR

14°C / 9°C

[Több]
Szél 240º 3kt
Látási viszonyok >10km
Időjárás -
Felhők Clouds and Visibility OK
Légnyomás 1010
Módosítás No Significant change
Nyers LKPR 010100Z 24003KT CAVOK 14/09 Q1010 NOSIG

VFR

15°C / 9°C

[Több]
Szél 240º 5kt
Látási viszonyok >10km
Időjárás -
Felhők Clouds and Visibility OK
Légnyomás 1010
Módosítás No Significant change
Nyers LKPR 010030Z 24005KT CAVOK 15/09 Q1010 NOSIG

VFR

14°C / 9°C

[Több]
Szél 220º 4kt
Látási viszonyok >10km
Időjárás -
Felhők Clouds and Visibility OK
Légnyomás 1010
Módosítás No Significant change
Nyers LKPR 010000Z 22004KT CAVOK 14/09 Q1010 NOSIG

VFR

14°C / 9°C

[Több]
Szél 220º 5kt
Látási viszonyok >10km
Időjárás -
Felhők Clouds and Visibility OK
Légnyomás 1010
Módosítás No Significant change
Nyers LKPR 312330Z 22005KT CAVOK 14/09 Q1010 NOSIG

VFR

15°C / 10°C

[Több]
Szél 220º 7kt
Látási viszonyok >10km
Időjárás -
Felhők Clouds and Visibility OK
Légnyomás 1011
Módosítás No Significant change
Nyers LKPR 312300Z 22007KT CAVOK 15/10 Q1011 NOSIG

VFR

15°C / 10°C

[Több]
Szél 220º 7kt
Látási viszonyok >10km
Időjárás -
Felhők Clouds and Visibility OK
Légnyomás 1010
Módosítás No Significant change
Nyers LKPR 312230Z 22007KT CAVOK 15/10 Q1010 NOSIG

TAF 50.1°É 14.27°K (LKPR)-ért

From till


From till Wind 280º 8kt. Visibility 10km or more. Broken Clouds 3000ft.
Temporarly from till Visibility 5000m. Rain Mist . Broken Clouds 2000ft.
With 40% probability, Temporarly from till Visibility 8000m. Showers Rain . Scattered Clouds 3500ft.
Temporarly from till Wind 250º 14kt.

Nyers: TAF LKPR 010500Z 0106/0212 28008KT 9999 BKN030 TEMPO 0106/0112 5000 RA BR BKN020 PROB40 TEMPO 0112/0118 8000 SHRA SCT035TCU TEMPO 0207/0212 25014KT

rainNOW: Eső előrejelzés 50.1°É 14.27°K és környéke (25km-es körzetben)

0.1 mm
0.1 mm
0.1 mm
0.1 mm
0.1 mm
0.0 mm
0.0 mm
0.0 mm
0.1 mm
0.1 mm
0.1 mm
0.1 mm

Aktuális műholdas és esőképek ezen a helyen: 50.1°É 14.27°K

A helyszín jelölő a következő helyen van elhelyezve: 50.1°É 14.27°K. [Több]

A valós idejű műholdas kép ötvözi a nappali látható fényt az éjszakai infravörös sugárzással. Éjjel a kép nem sötét, mivel az infravörös sugárzás képes érzékelni a hőmérséklet-különbségeket. Sajnos az alacsony felhőket és a ködöt nehéz megkülönböztetni a talaj hőmérsékletétől, így az éjszaka folyamán szinte láthatatlanok lehetnek. A Meteosat európai műholdképei valós időben frissülnek minden 5 percben. A GOES-16/GOES-17 (Észak- és Dél-Amerika) és Himawari (Ázsia) képei 10 percenként frissülnek.

A csapadékot radarok és műholdak segítségével határozzák meg. A műholdak által mért éjjeli csapadék becslése kevésbé pontos, mint a nappali. A narancssárga keresztek jelölik azokat a helyeket, ahol villámlás észlelhető (Európa felett).

Minden jog fenntartva 2021 EUMETSAT / meteoblue. nowcast által biztosított villámlással kapcsolatos adatok.

Radarkép és ultrarövid távú csapadék-előrejelzés a következő helyhez: 50.1°É 14.27°K

Szitálás
Enyhe
Mérsékelt
Erős
Nagyon nehéz
Jégeső

A helyzetjelző helye: 50.1°É 14.27°K. Ez az animáció bemutatja a csapadékradart az elmúlt órára vonatkozóan, valamint előrejelzést az elkövetkező 1 órára. Előfordulhat, hogy a radar a szitálást és az enyhe havazást nem észleli. A csapadék erősségét színkódok jelzik, a világoskéktől a sötétliláig.